HB9BHU-16 Weather Reports


Display with metric or nautical units.
time (UTC)temp
F
wind
direction
speed
MPH
gust
MPH
rain 1hr
in
rain 24hr
in
rain mn
in
humidity
%
barometer
mb
20221006011503 54 310 6.0 10.0 0.01 0.16 0.02 92 1029.6
20221006010002 54 295 7.0 11.0 0.01 0.17 0.02 92 1029.6
20221006004601 54 286 5.0 9.0 0.01 0.17 0.02 92 1029.5
20221006003058 54 288 3.0 8.0 0.01 0.17 0.02 92 1029.5
20221006001608 54 289 5.0 9.0 0.00 0.16 0.01 92 1029.3
20221006000056 55 294 5.0 8.0 0.00 0.16 0.01 92 1029.3
20221005234553 55 288 5.0 10.0 0.01 0.17 0.01 92 1029.4
20221005233052 54 279 4.0 9.0 0.01 0.17 0.01 92 1029.3
20221005231550 55 286 1.0 6.0 0.01 0.17 0.01 92 1029.2
20221005230045 55 282 5.0 8.0 0.01 0.17 0.01 92 1029.1
20221005224544 55 294 2.0 4.0 0.00 0.16 0.00 91 1029.0
20221005223042 55 296 1.0 3.0 0.00 0.16 0.00 91 1029.0
20221005221540 56 295 3.0 5.0 0.00 0.16 0.00 90 1028.9
20221005220036 56 288 2.0 5.0 0.01 0.17 0.16 90 1028.8
20221005214535 57 289 4.0 10.0 0.01 0.17 0.16 89 1028.6
20221005213034 58 313 0.0 0.0 0.01 0.17 0.16 88 1028.5
20221005211535 58 290 0.0 0.0 0.01 0.17 0.16 88 1028.4
20221005210030 58 291 0.0 0.0 0.00 0.17 0.15 89 1028.3
20221005204529 58 305 0.0 0.0 0.01 0.17 0.15 90 1028.1
20221005203030 58 319 0.0 0.0 0.01 0.17 0.15 90 1027.9
20221005201525 58 295 0.0 0.0 0.01 0.17 0.15 89 1027.8
20221005200024 58 295 0.0 0.0 0.01 0.17 0.15 86 1027.5
20221005194522 59 295 0.0 0.0 0.00 0.17 0.14 86 1027.2
20221005193019 59 295 0.0 0.0 0.00 0.17 0.14 86 1026.9
20221005191519 60 295 0.0 0.0 0.01 0.17 0.14 84 1026.8
20221005190017 60 295 0.0 0.0 0.01 0.17 0.14 84 1026.7
20221005184518 61 292 0.0 0.0 0.01 0.17 0.14 82 1026.6
20221005183016 62 291 0.0 0.0 0.01 0.17 0.14 80 1026.4
20221005181515 62 291 0.0 0.0 0.00 0.17 0.13 79 1026.0
20221005180015 63 279 0.0 0.0 0.01 0.17 0.13 77 1025.8
20221005174523 64 279 0.0 0.0 0.01 0.17 0.13 75 1025.6
20221005173015 66 279 0.0 0.0 0.01 0.17 0.13 71 1025.3
20221005171514 67 280 0.0 0.0 0.01 0.17 0.13 70 1025.2
20221005170013 68 271 0.0 0.0 0.00 0.17 0.13 66 1025.1
20221005164513 69 269 0.0 0.0 0.01 0.17 0.13 64 1024.8
20221005163023 70 270 0.0 0.0 0.01 0.17 0.13 63 1024.3
20221005161511 71 313 0.0 0.0 0.01 0.17 0.13 61 1024.5
20221005160010 71 263 1.0 9.0 0.01 0.19 0.13 60 1024.1
20221005154518 71 273 2.0 13.0 0.01 0.18 0.12 59 1024.3
20221005153006 72 269 6.0 15.0 0.01 0.18 0.12 59 1024.3
20221005151504 71 286 6.0 11.0 0.01 0.18 0.12 60 1024.2
20221005150007 71 257 10.0 16.0 0.01 0.19 0.12 59 1024.3
20221005144503 71 291 7.0 13.0 0.00 0.18 0.11 59 1024.4
20221005143001 72 254 9.0 12.0 0.01 0.18 0.11 58 1024.4
20221005141600 71 267 7.0 14.0 0.01 0.18 0.11 58 1024.6
20221005140106 72 268 8.0 17.0 0.01 0.18 0.11 58 1024.5
20221005134557 71 278 2.0 15.0 0.02 0.20 0.11 60 1024.6
20221005133056 71 341 7.0 16.0 0.01 0.19 0.10 59 1024.6
20221005131557 71 300 9.0 15.0 0.01 0.19 0.10 59 1024.7
20221005130054 71 258 5.0 18.0 0.01 0.19 0.10 61 1024.7
20221005124550 70 224 7.0 20.0 0.01 0.19 0.09 61 1024.8
20221005123048 70 267 10.0 17.0 0.01 0.19 0.09 63 1024.9
20221005121546 70 284 5.0 13.0 0.01 0.19 0.09 63 1025.0
20221005120056 69 271 2.0 10.0 0.02 0.19 0.09 66 1025.2
20221005114537 68 296 2.0 9.0 0.01 0.20 0.09 69 1025.5
20221005113034 66 269 3.0 11.0 0.01 0.20 0.09 70 1025.7
20221005111532 66 259 4.0 12.0 0.01 0.20 0.09 71 1025.9
20221005110027 64 292 6.0 14.0 0.01 0.20 0.08 73 1026.1
20221005104524 63 275 5.0 11.0 0.01 0.20 0.08 76 1026.2
20221005103028 62 295 5.0 12.0 0.01 0.20 0.08 78 1026.2
20221005101527 61 292 7.0 13.0 0.01 0.20 0.08 81 1026.2